Time;durP1;ratioP1;P1;durP2;ratioP2;P2;SDS_P1;SDS_P2;PMS_P1;PMS_P2;Temp;Humidity;BMP_temperature;BMP_pressure;BME280_temperature;BME280_humidity;BME280_pressure;Samples;Min_cycle;Max_cycle;Signal;HPM_P1;HPM_P2
2023/09/05 00:02:24;;;;;;;10.25;7.53;;;;;;;;;;4997559;28;20095;-79
2023/09/05 00:04:50;;;;;;;11.50;7.55;;;;;;;;;;4995664;28;20041;-79
2023/09/05 00:07:16;;;;;;;10.05;7.18;;;;;;;;;;5011419;28;20065;-79
2023/09/05 00:09:43;;;;;;;9.32;7.75;;;;;;;;;;5017062;28;20057;-79
2023/09/05 00:12:09;;;;;;;10.05;8.13;;;;;;;;;;4995289;28;20047;-79
2023/09/05 00:14:36;;;;;;;11.30;8.85;;;;;;;;;;4977974;28;20043;-79
2023/09/05 00:17:02;;;;;;;10.93;8.38;;;;;;;;;;5100990;28;20047;-80
2023/09/05 00:19:28;;;;;;;10.15;8.15;;;;;;;;;;5119714;28;20050;-79
2023/09/05 00:21:54;;;;;;;10.55;8.85;;;;;;;;;;5120043;28;20491;-79
2023/09/05 00:24:31;;;;;;;10.45;8.20;;;;;;;;;;5119188;28;20055;-79
2023/09/05 00:27:00;;;;;;;11.43;8.95;;;;;;;;;;5118652;28;20089;-79
2023/09/05 00:29:27;;;;;;;14.05;9.65;;;;;;;;;;5120044;28;20051;-79
2023/09/05 00:31:59;;;;;;;10.18;8.02;;;;;;;;;;5117834;28;20665;-79
2023/09/05 00:34:29;;;;;;;9.80;8.07;;;;;;;;;;5116899;28;20047;-79
2023/09/05 00:36:56;;;;;;;10.55;8.63;;;;;;;;;;5115238;28;20050;-79
2023/09/05 00:39:22;;;;;;;12.25;8.43;;;;;;;;;;5118176;28;20348;-79
2023/09/05 00:41:48;;;;;;;12.13;9.32;;;;;;;;;;5085129;28;20036;-79
2023/09/05 00:44:15;;;;;;;10.98;9.10;;;;;;;;;;5096330;28;20048;-79
2023/09/05 00:46:45;;;;;;;10.27;8.93;;;;;;;;;;5098716;28;20059;-79
2023/09/05 00:49:12;;;;;;;12.45;9.30;;;;;;;;;;5106890;28;20047;-80
2023/09/05 00:51:39;;;;;;;12.93;9.38;;;;;;;;;;5116194;28;20051;-79
2023/09/05 00:54:06;;;;;;;10.48;8.45;;;;;;;;;;5116440;28;20077;-79
2023/09/05 00:56:32;;;;;;;11.80;9.75;;;;;;;;;;5116377;28;20096;-79
2023/09/05 00:58:59;;;;;;;10.88;8.73;;;;;;;;;;5099402;28;20148;-79
2023/09/05 01:01:25;;;;;;;12.70;9.43;;;;;;;;;;5101138;28;20642;-79
2023/09/05 01:03:54;;;;;;;11.70;9.60;;;;;;;;;;5112641;28;20040;-79
2023/09/05 01:06:33;;;;;;;11.63;9.07;;;;;;;;;;5114765;28;20137;-79
2023/09/05 01:09:12;;;;;;;13.65;9.88;;;;;;;;;;5113796;28;20051;-78
2023/09/05 01:11:39;;;;;;;10.80;9.15;;;;;;;;;;5113411;28;20031;-79
2023/09/05 01:14:05;;;;;;;11.63;9.85;;;;;;;;;;5114052;28;20110;-78
2023/09/05 01:16:32;;;;;;;11.50;9.60;;;;;;;;;;5109964;28;20096;-78
2023/09/05 01:19:01;;;;;;;11.02;9.75;;;;;;;;;;5113776;28;20047;-78
2023/09/05 01:21:31;;;;;;;14.73;10.57;;;;;;;;;;5114036;28;20040;-78
2023/09/05 01:24:11;;;;;;;14.10;10.77;;;;;;;;;;5114778;28;20134;-78
2023/09/05 01:26:37;;;;;;;13.23;11.13;;;;;;;;;;5112643;28;20413;-79
2023/09/05 01:29:05;;;;;;;13.73;10.93;;;;;;;;;;5112935;28;20099;-79
2023/09/05 01:31:31;;;;;;;11.98;10.20;;;;;;;;;;5117761;28;20443;-79
2023/09/05 01:33:57;;;;;;;12.63;11.32;;;;;;;;;;5116061;28;20046;-79
2023/09/05 01:36:24;;;;;;;13.48;11.60;;;;;;;;;;5094756;28;20048;-79
2023/09/05 01:38:50;;;;;;;12.30;10.95;;;;;;;;;;5096955;28;20044;-79
2023/09/05 01:41:16;;;;;;;12.75;11.50;;;;;;;;;;5097123;28;20045;-78
2023/09/05 01:43:42;;;;;;;12.20;10.88;;;;;;;;;;5106582;28;20040;-79
2023/09/05 01:46:08;;;;;;;14.07;11.13;;;;;;;;;;5116593;28;20405;-79
2023/09/05 01:48:34;;;;;;;14.38;12.88;;;;;;;;;;5112988;28;20044;-79
2023/09/05 01:51:00;;;;;;;16.05;12.23;;;;;;;;;;5111587;28;20047;-79
2023/09/05 01:53:26;;;;;;;15.20;11.65;;;;;;;;;;5116493;28;20047;-79
2023/09/05 01:55:52;;;;;;;14.93;13.02;;;;;;;;;;5108831;28;20035;-80
2023/09/05 01:58:18;;;;;;;13.45;11.90;;;;;;;;;;5113533;28;20042;-79
2023/09/05 02:00:44;;;;;;;15.52;11.88;;;;;;;;;;5115982;28;20069;-79
2023/09/05 02:03:11;;;;;;;12.15;10.90;;;;;;;;;;5114804;28;20076;-80
2023/09/05 02:05:37;;;;;;;13.82;11.75;;;;;;;;;;5106118;28;20094;-79
2023/09/05 02:08:04;;;;;;;13.02;10.88;;;;;;;;;;5074169;28;20044;-79
2023/09/05 02:10:31;;;;;;;15.10;11.73;;;;;;;;;;5089459;28;20418;-80
2023/09/05 02:12:57;;;;;;;14.10;11.20;;;;;;;;;;5075436;28;20059;-80
2023/09/05 02:15:23;;;;;;;13.02;10.70;;;;;;;;;;5075801;28;20043;-80
2023/09/05 02:17:49;;;;;;;13.15;11.32;;;;;;;;;;5087932;28;20123;-79
2023/09/05 02:20:15;;;;;;;13.70;11.00;;;;;;;;;;5096715;28;20040;-79
2023/09/05 02:22:43;;;;;;;14.98;12.48;;;;;;;;;;5095602;28;20048;-80
2023/09/05 02:25:11;;;;;;;13.20;11.77;;;;;;;;;;5095910;28;20044;-80
2023/09/05 02:27:38;;;;;;;15.88;12.15;;;;;;;;;;5096199;28;20071;-79
2023/09/05 02:30:04;;;;;;;14.57;12.45;;;;;;;;;;5096701;28;20040;-79
2023/09/05 02:32:30;;;;;;;15.18;12.02;;;;;;;;;;5099401;28;20414;-80
2023/09/05 02:34:58;;;;;;;14.15;12.45;;;;;;;;;;5098614;28;20102;-79
2023/09/05 02:37:24;;;;;;;13.25;11.77;;;;;;;;;;5099628;28;20119;-79
2023/09/05 02:39:50;;;;;;;14.95;12.35;;;;;;;;;;5099014;28;20044;-79
2023/09/05 02:42:16;;;;;;;14.60;12.52;;;;;;;;;;5100136;28;20558;-79
2023/09/05 02:44:42;;;;;;;15.75;11.57;;;;;;;;;;5100995;28;20521;-79
2023/09/05 02:47:08;;;;;;;19.20;11.60;;;;;;;;;;5098015;28;20047;-80
2023/09/05 02:49:34;;;;;;;13.52;12.10;;;;;;;;;;5079558;28;20052;-80
2023/09/05 02:52:00;;;;;;;14.13;12.40;;;;;;;;;;5080630;28;20437;-80
2023/09/05 02:54:29;;;;;;;12.85;11.55;;;;;;;;;;5091885;28;20052;-80
2023/09/05 02:56:55;;;;;;;14.98;12.63;;;;;;;;;;5080066;28;20036;-80
2023/09/05 02:59:22;;;;;;;18.75;12.20;;;;;;;;;;5093811;28;20512;-80
2023/09/05 03:01:48;;;;;;;14.95;11.45;;;;;;;;;;5100584;28;20124;-79
2023/09/05 03:04:17;;;;;;;16.42;11.73;;;;;;;;;;5094502;28;20044;-80
2023/09/05 03:06:43;;;;;;;15.93;11.77;;;;;;;;;;5079667;28;20036;-80
2023/09/05 03:09:09;;;;;;;14.73;12.45;;;;;;;;;;5099741;28;20406;-79
2023/09/05 03:11:35;;;;;;;13.35;11.63;;;;;;;;;;5081519;28;20509;-79
2023/09/05 03:14:02;;;;;;;14.73;13.18;;;;;;;;;;5099485;28;20040;-79
2023/09/05 03:16:31;;;;;;;17.00;13.20;;;;;;;;;;5115751;28;20047;-80
2023/09/05 03:18:59;;;;;;;16.02;13.32;;;;;;;;;;5102792;28;20048;-80
2023/09/05 03:21:26;;;;;;;17.63;13.32;;;;;;;;;;5085642;28;20044;-79
2023/09/05 03:23:52;;;;;;;15.98;13.77;;;;;;;;;;5114566;28;20374;-80
2023/09/05 03:26:19;;;;;;;15.52;12.63;;;;;;;;;;5119119;28;20071;-80
2023/09/05 03:28:46;;;;;;;14.40;12.55;;;;;;;;;;5103360;28;20044;-79
2023/09/05 03:31:12;;;;;;;15.15;12.93;;;;;;;;;;5064317;28;20055;-80
2023/09/05 03:33:38;;;;;;;14.52;12.88;;;;;;;;;;5117875;28;20378;-79
2023/09/05 03:36:05;;;;;;;15.48;13.77;;;;;;;;;;5115581;28;20077;-79
2023/09/05 03:38:31;;;;;;;14.75;13.23;;;;;;;;;;5113263;28;20044;-79
2023/09/05 03:40:58;;;;;;;17.42;12.98;;;;;;;;;;5119544;28;20067;-79
2023/09/05 03:43:27;;;;;;;17.10;12.85;;;;;;;;;;5098609;28;20254;-80
2023/09/05 03:45:53;;;;;;;14.95;13.35;;;;;;;;;;5098983;28;20136;-79
2023/09/05 03:48:20;;;;;;;15.60;13.50;;;;;;;;;;5098685;28;20040;-79
2023/09/05 03:50:46;;;;;;;14.70;13.25;;;;;;;;;;5101380;28;20048;-79
2023/09/05 03:53:12;;;;;;;15.23;13.63;;;;;;;;;;5119760;28;20050;-79
2023/09/05 03:55:38;;;;;;;14.40;12.93;;;;;;;;;;5112852;28;20036;-79
2023/09/05 03:58:04;;;;;;;16.88;14.10;;;;;;;;;;5114124;28;20039;-80
2023/09/05 04:00:34;;;;;;;14.52;12.70;;;;;;;;;;5109572;28;20040;-79
2023/09/05 04:03:02;;;;;;;19.42;14.30;;;;;;;;;;5109218;28;20039;-80
2023/09/05 04:05:28;;;;;;;17.20;14.65;;;;;;;;;;5115999;28;20104;-79
2023/09/05 04:07:55;;;;;;;15.32;13.63;;;;;;;;;;5111623;28;20050;-79
2023/09/05 04:10:22;;;;;;;15.68;13.82;;;;;;;;;;5104715;28;20048;-79
2023/09/05 04:12:50;;;;;;;17.42;15.40;;;;;;;;;;5118596;28;20413;-79
2023/09/05 04:15:20;;;;;;;16.38;14.68;;;;;;;;;;5118175;28;20471;-79
2023/09/05 04:17:47;;;;;;;17.63;14.07;;;;;;;;;;5117867;28;20047;-79
2023/09/05 04:20:13;;;;;;;16.83;14.90;;;;;;;;;;5116828;28;20055;-79
2023/09/05 04:22:39;;;;;;;16.98;15.27;;;;;;;;;;5116787;28;20100;-79
2023/09/05 04:25:07;;;;;;;16.58;14.88;;;;;;;;;;5116923;28;20043;-79
2023/09/05 04:27:33;;;;;;;18.13;15.63;;;;;;;;;;5117527;28;20040;-80
2023/09/05 04:29:59;;;;;;;16.92;14.63;;;;;;;;;;5117929;28;20443;-79
2023/09/05 04:32:30;;;;;;;19.02;15.40;;;;;;;;;;5113991;28;20423;-80
2023/09/05 04:35:00;;;;;;;18.52;14.82;;;;;;;;;;5103429;28;20473;-79
2023/09/05 04:37:27;;;;;;;22.20;16.45;;;;;;;;;;5118272;28;20047;-79
2023/09/05 04:39:53;;;;;;;19.45;15.70;;;;;;;;;;5117733;28;20099;-80
2023/09/05 04:42:19;;;;;;;17.13;15.35;;;;;;;;;;5116483;28;20490;-79
2023/09/05 04:44:45;;;;;;;17.55;15.60;;;;;;;;;;5110443;28;20044;-79
2023/09/05 04:47:20;;;;;;;17.00;14.85;;;;;;;;;;5111562;28;20044;-80
2023/09/05 04:49:48;;;;;;;18.38;15.50;;;;;;;;;;5103828;28;20043;-79
2023/09/05 04:52:14;;;;;;;16.85;14.98;;;;;;;;;;5114003;28;20050;-80
2023/09/05 04:54:40;;;;;;;17.50;14.77;;;;;;;;;;5099247;28;20047;-79
2023/09/05 04:57:06;;;;;;;15.55;13.98;;;;;;;;;;5109725;28;20126;-80
2023/09/05 04:59:32;;;;;;;16.40;14.00;;;;;;;;;;5105039;28;20131;-79
2023/09/05 05:02:01;;;;;;;16.90;14.80;;;;;;;;;;5115438;28;20131;-79
2023/09/05 05:04:27;;;;;;;16.92;15.10;;;;;;;;;;5101813;28;20044;-80
2023/09/05 05:06:53;;;;;;;15.95;14.23;;;;;;;;;;5115821;28;20189;-79
2023/09/05 05:09:19;;;;;;;15.52;13.48;;;;;;;;;;5116093;28;20044;-79
2023/09/05 05:11:45;;;;;;;15.07;13.57;;;;;;;;;;5095245;28;20056;-80
2023/09/05 05:14:11;;;;;;;16.88;14.13;;;;;;;;;;5103311;28;20495;-79
2023/09/05 05:16:37;;;;;;;16.85;14.75;;;;;;;;;;5095177;28;20119;-79
2023/09/05 05:19:04;;;;;;;15.93;14.18;;;;;;;;;;5113367;28;20063;-79
2023/09/05 05:21:30;;;;;;;15.43;13.77;;;;;;;;;;5103043;28;20082;-79
2023/09/05 05:23:56;;;;;;;14.48;12.38;;;;;;;;;;5111622;28;20079;-79
2023/09/05 05:26:23;;;;;;;15.98;13.27;;;;;;;;;;5115381;28;20036;-79
2023/09/05 05:28:49;;;;;;;14.63;13.15;;;;;;;;;;5112991;28;20104;-79
2023/09/05 05:31:15;;;;;;;14.27;12.77;;;;;;;;;;5115638;28;20060;-79
2023/09/05 05:33:41;;;;;;;15.55;12.63;;;;;;;;;;5108075;28;20190;-79
2023/09/05 05:36:07;;;;;;;14.57;12.95;;;;;;;;;;5106869;28;20039;-80
2023/09/05 05:38:33;;;;;;;14.52;12.43;;;;;;;;;;5112412;28;20043;-80
2023/09/05 05:40:59;;;;;;;14.38;12.30;;;;;;;;;;5114052;28;20047;-79
2023/09/05 05:43:29;;;;;;;12.93;11.63;;;;;;;;;;5103990;28;20346;-81
2023/09/05 05:45:55;;;;;;;13.88;10.88;;;;;;;;;;5118237;28;20124;-81
2023/09/05 05:48:21;;;;;;;15.45;10.00;;;;;;;;;;5095625;28;20051;-79
2023/09/05 05:50:47;;;;;;;10.95;9.65;;;;;;;;;;5092147;28;20040;-78
2023/09/05 05:53:13;;;;;;;12.25;9.60;;;;;;;;;;5106555;28;20122;-79
2023/09/05 05:55:40;;;;;;;12.02;9.73;;;;;;;;;;5112796;28;20047;-79
2023/09/05 05:58:06;;;;;;;10.95;9.70;;;;;;;;;;5112078;28;20498;-80
2023/09/05 06:00:32;;;;;;;9.75;8.60;;;;;;;;;;5115180;28;20086;-79
2023/09/05 06:03:01;;;;;;;13.05;8.68;;;;;;;;;;5113075;28;20124;-79
2023/09/05 06:05:27;;;;;;;11.57;8.77;;;;;;;;;;5098605;28;20058;-79
2023/09/05 06:07:54;;;;;;;11.80;8.55;;;;;;;;;;5110015;28;20062;-79
2023/09/05 06:10:20;;;;;;;11.98;8.50;;;;;;;;;;5106299;28;20039;-79
2023/09/05 06:12:46;;;;;;;10.32;8.15;;;;;;;;;;5116507;28;20405;-79
2023/09/05 06:15:12;;;;;;;10.80;7.93;;;;;;;;;;5110134;28;20051;-79
2023/09/05 06:17:38;;;;;;;12.50;8.07;;;;;;;;;;5117498;28;20127;-79
2023/09/05 06:20:04;;;;;;;9.50;7.93;;;;;;;;;;5118453;28;20059;-79
2023/09/05 06:22:30;;;;;;;9.57;7.13;;;;;;;;;;5118568;28;20101;-80
2023/09/05 06:24:56;;;;;;;8.60;7.68;;;;;;;;;;5118973;28;20406;-79
2023/09/05 06:27:22;;;;;;;8.70;6.95;;;;;;;;;;5119674;28;20043;-79
2023/09/05 06:29:48;;;;;;;11.57;7.35;;;;;;;;;;5120904;28;20069;-79
2023/09/05 06:32:14;;;;;;;10.35;7.75;;;;;;;;;;5118455;28;20064;-80
2023/09/05 06:34:40;;;;;;;9.30;7.05;;;;;;;;;;5113035;28;20387;-79
2023/09/05 06:37:06;;;;;;;9.35;6.60;;;;;;;;;;5109090;28;20078;-79
2023/09/05 06:39:35;;;;;;;9.40;6.50;;;;;;;;;;5120013;28;20490;-80
2023/09/05 06:42:01;;;;;;;10.38;6.90;;;;;;;;;;5120097;28;20517;-80
2023/09/05 06:44:30;;;;;;;8.27;6.53;;;;;;;;;;5117905;28;20039;-81
2023/09/05 06:46:56;;;;;;;8.65;6.13;;;;;;;;;;5102779;28;20055;-80
2023/09/05 06:49:22;;;;;;;8.05;6.40;;;;;;;;;;5101533;28;20044;-79
2023/09/05 06:51:48;;;;;;;10.40;6.72;;;;;;;;;;5112567;28;20048;-79
2023/09/05 06:54:14;;;;;;;10.68;6.38;;;;;;;;;;5113270;28;20130;-79
2023/09/05 06:56:40;;;;;;;11.27;6.43;;;;;;;;;;5119459;28;20114;-79
2023/09/05 06:59:17;;;;;;;9.63;5.93;;;;;;;;;;5120923;28;20055;-80
2023/09/05 07:01:47;;;;;;;9.90;6.45;;;;;;;;;;5114684;28;20043;-80
2023/09/05 07:04:14;;;;;;;8.98;6.32;;;;;;;;;;5118137;28;20058;-80
2023/09/05 07:06:42;;;;;;;8.38;6.03;;;;;;;;;;5114206;28;20655;-80
2023/09/05 07:09:08;;;;;;;13.13;6.57;;;;;;;;;;5117857;28;20447;-80
2023/09/05 07:11:35;;;;;;;8.38;6.13;;;;;;;;;;5109139;28;20115;-80
2023/09/05 07:14:01;;;;;;;7.95;5.50;;;;;;;;;;5108543;28;20409;-80
2023/09/05 07:16:27;;;;;;;9.00;5.40;;;;;;;;;;5120188;28;20048;-80
2023/09/05 07:18:53;;;;;;;12.23;5.63;;;;;;;;;;5120364;28;20058;-79
2023/09/05 07:21:19;;;;;;;9.32;5.85;;;;;;;;;;5121942;28;20095;-80
2023/09/05 07:23:46;;;;;;;9.00;6.18;;;;;;;;;;5120347;28;20047;-80
2023/09/05 07:26:12;;;;;;;7.07;5.40;;;;;;;;;;5126378;28;20059;-80
2023/09/05 07:28:38;;;;;;;8.93;5.68;;;;;;;;;;5125562;28;20059;-80
2023/09/05 07:31:04;;;;;;;8.18;5.80;;;;;;;;;;5109964;28;20827;-80
2023/09/05 07:33:31;;;;;;;8.57;5.50;;;;;;;;;;5104288;28;20085;-78
2023/09/05 07:35:58;;;;;;;8.93;5.50;;;;;;;;;;5118432;28;20051;-79
2023/09/05 07:38:24;;;;;;;10.38;5.40;;;;;;;;;;5089246;28;20047;-79
2023/09/05 07:41:09;;;;;;;9.43;5.60;;;;;;;;;;5121236;28;20076;-79
2023/09/05 07:43:35;;;;;;;8.82;5.70;;;;;;;;;;5122570;28;20042;-81
2023/09/05 07:46:02;;;;;;;7.72;4.93;;;;;;;;;;5123361;28;20036;-79
2023/09/05 07:48:28;;;;;;;9.23;5.30;;;;;;;;;;5122276;28;20123;-79
2023/09/05 07:51:05;;;;;;;7.63;5.05;;;;;;;;;;5104046;28;20032;-79
2023/09/05 07:53:32;;;;;;;7.75;4.65;;;;;;;;;;5103387;28;20048;-79
2023/09/05 07:55:59;;;;;;;7.97;4.90;;;;;;;;;;5103298;28;20043;-79
2023/09/05 07:58:28;;;;;;;9.50;5.25;;;;;;;;;;5102837;28;20036;-79
2023/09/05 08:00:55;;;;;;;8.07;4.57;;;;;;;;;;5107563;28;20048;-80
2023/09/05 08:03:21;;;;;;;10.38;5.32;;;;;;;;;;5122323;28;20078;-79
2023/09/05 08:05:48;;;;;;;6.80;4.82;;;;;;;;;;5120931;28;20100;-79
2023/09/05 08:08:17;;;;;;;9.73;4.90;;;;;;;;;;5111114;28;20044;-79
2023/09/05 08:10:43;;;;;;;10.40;5.45;;;;;;;;;;5100381;28;20048;-79
2023/09/05 08:13:10;;;;;;;8.65;4.75;;;;;;;;;;5118136;28;20047;-80
2023/09/05 08:15:36;;;;;;;6.45;4.55;;;;;;;;;;5108808;28;20069;-79
2023/09/05 08:18:03;;;;;;;7.20;4.57;;;;;;;;;;5121603;28;20120;-79
2023/09/05 08:20:30;;;;;;;7.05;4.07;;;;;;;;;;5121496;28;20051;-79
2023/09/05 08:22:56;;;;;;;8.50;4.03;;;;;;;;;;5120864;28;20035;-78
2023/09/05 08:25:24;;;;;;;7.55;4.35;;;;;;;;;;5122573;28;20065;-78
2023/09/05 08:27:50;;;;;;;8.13;4.55;;;;;;;;;;5120619;28;20047;-79
2023/09/05 08:30:16;;;;;;;6.50;3.90;;;;;;;;;;5121494;28;20043;-79
2023/09/05 08:32:43;;;;;;;7.75;4.38;;;;;;;;;;5120781;28;20457;-78
2023/09/05 08:35:10;;;;;;;8.93;4.05;;;;;;;;;;5103476;28;20047;-78
2023/09/05 08:37:37;;;;;;;7.45;3.67;;;;;;;;;;5118900;28;20047;-78
2023/09/05 08:40:03;;;;;;;6.20;3.40;;;;;;;;;;5120122;28;20032;-78
2023/09/05 08:42:33;;;;;;;6.53;3.50;;;;;;;;;;5120889;28;20061;-78
2023/09/05 08:44:59;;;;;;;7.35;3.20;;;;;;;;;;5109114;28;20064;-78
2023/09/05 08:47:31;;;;;;;6.25;3.38;;;;;;;;;;5099794;28;20127;-79
2023/09/05 08:50:04;;;;;;;5.90;2.70;;;;;;;;;;5090575;28;20050;-79
2023/09/05 08:52:32;;;;;;;7.07;3.00;;;;;;;;;;5117009;28;20058;-78
2023/09/05 08:54:59;;;;;;;5.70;2.80;;;;;;;;;;5118643;28;20134;-78
2023/09/05 08:57:26;;;;;;;5.80;2.70;;;;;;;;;;5114860;28;20043;-79
2023/09/05 08:59:54;;;;;;;6.13;2.75;;;;;;;;;;5116329;28;20042;-78
2023/09/05 09:02:20;;;;;;;7.57;2.92;;;;;;;;;;5118106;28;20378;-78
2023/09/05 09:04:50;;;;;;;8.30;3.00;;;;;;;;;;5116160;27;20047;-78
2023/09/05 09:07:17;;;;;;;7.65;2.88;;;;;;;;;;5114108;28;20047;-77
2023/09/05 09:09:43;;;;;;;5.85;2.90;;;;;;;;;;5118701;28;20136;-78
2023/09/05 09:12:09;;;;;;;7.65;3.15;;;;;;;;;;5100919;28;20052;-78
2023/09/05 09:14:35;;;;;;;5.30;2.47;;;;;;;;;;5099300;28;20048;-77
2023/09/05 09:17:05;;;;;;;8.98;3.33;;;;;;;;;;5111978;28;20039;-78
2023/09/05 09:19:32;;;;;;;9.57;4.00;;;;;;;;;;5119705;28;20489;-78
2023/09/05 09:22:00;;;;;;;7.72;3.55;;;;;;;;;;5103331;28;20062;-79
2023/09/05 09:24:31;;;;;;;6.72;3.10;;;;;;;;;;5116528;28;20129;-79
2023/09/05 09:26:57;;;;;;;8.43;3.47;;;;;;;;;;5107707;28;20048;-79
2023/09/05 09:29:23;;;;;;;7.95;3.42;;;;;;;;;;5101681;28;20043;-79
2023/09/05 09:31:49;;;;;;;6.50;3.45;;;;;;;;;;5102391;28;20382;-79
2023/09/05 09:34:20;;;;;;;7.32;3.20;;;;;;;;;;5111158;28;20050;-79
2023/09/05 09:36:50;;;;;;;7.60;2.60;;;;;;;;;;5121023;28;20135;-79
2023/09/05 09:39:17;;;;;;;;;;;;;;;;;;5122641;28;20277;-79
2023/09/05 09:41:44;;;;;;;8.23;3.38;;;;;;;;;;5120395;28;19983;-79
2023/09/05 09:44:10;;;;;;;7.20;3.15;;;;;;;;;;5119858;28;20099;-79
2023/09/05 09:46:36;;;;;;;5.15;2.70;;;;;;;;;;5117347;28;20043;-79
2023/09/05 09:49:07;;;;;;;6.32;2.67;;;;;;;;;;5119364;28;20090;-78
2023/09/05 09:51:34;;;;;;;5.22;2.00;;;;;;;;;;5120754;28;20043;-79
2023/09/05 09:54:01;;;;;;;6.70;2.20;;;;;;;;;;5118616;28;20043;-79
2023/09/05 09:56:28;;;;;;;6.30;2.30;;;;;;;;;;5119650;28;20043;-79
2023/09/05 09:58:56;;;;;;;7.13;2.50;;;;;;;;;;5119427;28;20434;-78
2023/09/05 10:01:22;;;;;;;6.55;2.55;;;;;;;;;;5117582;28;20063;-79
2023/09/05 10:03:48;;;;;;;5.32;2.50;;;;;;;;;;5119121;28;20048;-79
2023/09/05 10:06:16;;;;;;;5.20;2.20;;;;;;;;;;5117961;28;20055;-78
2023/09/05 10:08:42;;;;;;;5.85;2.00;;;;;;;;;;5119794;28;20054;-79
2023/09/05 10:11:10;;;;;;;5.05;2.30;;;;;;;;;;5118577;28;20043;-79
2023/09/05 10:13:37;;;;;;;6.57;2.42;;;;;;;;;;5119705;28;20489;-79
2023/09/05 10:16:06;;;;;;;5.00;1.95;;;;;;;;;;5114364;28;20079;-79
2023/09/05 10:18:32;;;;;;;7.97;2.20;;;;;;;;;;5118066;28;20040;-79
2023/09/05 10:21:02;;;;;;;5.18;1.70;;;;;;;;;;5119292;28;20071;-79
2023/09/05 10:23:32;;;;;;;6.50;2.08;;;;;;;;;;5118776;28;20512;-79
2023/09/05 10:25:59;;;;;;;5.47;1.80;;;;;;;;;;5100112;28;20056;-79
2023/09/05 10:28:27;;;;;;;5.55;2.05;;;;;;;;;;5090992;28;20126;-80
2023/09/05 10:30:54;;;;;;;6.90;2.40;;;;;;;;;;5105726;28;20111;-79
2023/09/05 10:33:32;;;;;;;4.88;1.98;;;;;;;;;;5100053;28;20047;-79
2023/09/05 10:35:58;;;;;;;5.70;1.80;;;;;;;;;;5099379;28;20096;-77
2023/09/05 10:38:24;;;;;;;5.60;2.08;;;;;;;;;;5118587;28;20035;-79
2023/09/05 10:40:50;;;;;;;4.45;2.15;;;;;;;;;;5118860;28;20126;-79
2023/09/05 10:43:22;;;;;;;7.30;2.25;;;;;;;;;;5116015;28;20051;-78
2023/09/05 10:46:10;;;;;;;7.60;2.05;;;;;;;;;;5113607;28;20036;-79
2023/09/05 10:48:40;;;;;;;6.88;2.88;;;;;;;;;;5117988;28;20084;-80
2023/09/05 10:51:14;;;;;;;5.30;2.40;;;;;;;;;;5118061;28;20043;-79
2023/09/05 10:53:43;;;;;;;5.38;1.98;;;;;;;;;;5111155;28;20046;-79
2023/09/05 10:56:28;;;;;;;6.22;2.05;;;;;;;;;;5124182;28;20455;-79
2023/09/05 10:58:57;;;;;;;4.25;1.52;;;;;;;;;;5123934;28;20464;-79
2023/09/05 11:01:45;;;;;;;4.57;2.00;;;;;;;;;;5122661;28;20088;-79
2023/09/05 11:04:17;;;;;;;4.55;1.70;;;;;;;;;;5123386;28;20050;-79
2023/09/05 11:06:52;;;;;;;3.80;1.98;;;;;;;;;;5104423;28;20545;-78
2023/09/05 11:09:18;;;;;;;5.85;2.15;;;;;;;;;;5123211;28;20047;-79
2023/09/05 11:11:45;;;;;;;5.15;1.77;;;;;;;;;;5123666;28;20505;-79
2023/09/05 11:14:11;;;;;;;6.32;1.88;;;;;;;;;;5124293;28;20111;-79
2023/09/05 11:16:47;;;;;;;4.00;1.50;;;;;;;;;;5122535;28;20103;-79
2023/09/05 11:19:31;;;;;;;5.50;1.80;;;;;;;;;;5119572;28;20418;-79
2023/09/05 11:22:10;;;;;;;4.35;2.00;;;;;;;;;;5124583;28;20048;-79
2023/09/05 11:24:37;;;;;;;4.50;1.55;;;;;;;;;;5117788;28;20217;-79
2023/09/05 11:27:06;;;;;;;6.15;2.22;;;;;;;;;;5101877;28;20040;-78
2023/09/05 11:29:33;;;;;;;3.85;1.70;;;;;;;;;;5101795;28;20088;-77
2023/09/05 11:31:59;;;;;;;3.63;1.35;;;;;;;;;;5119687;28;20052;-78
2023/09/05 11:34:26;;;;;;;5.18;1.52;;;;;;;;;;5121367;28;20107;-78
2023/09/05 11:36:52;;;;;;;5.28;1.58;;;;;;;;;;5122596;28;20055;-78
2023/09/05 11:39:18;;;;;;;4.95;1.50;;;;;;;;;;5119044;28;20044;-78
2023/09/05 11:41:44;;;;;;;3.92;1.33;;;;;;;;;;5115498;28;20058;-78
2023/09/05 11:44:10;;;;;;;4.88;1.60;;;;;;;;;;5100583;28;20428;-78
2023/09/05 11:46:40;;;;;;;5.47;1.63;;;;;;;;;;5114931;27;20127;-77
2023/09/05 11:49:06;;;;;;;3.53;1.52;;;;;;;;;;5109950;27;20450;-77
2023/09/05 11:51:32;;;;;;;4.97;1.50;;;;;;;;;;5096865;28;20043;-78
2023/09/05 11:53:59;;;;;;;3.63;1.40;;;;;;;;;;5119492;27;20051;-78
2023/09/05 11:56:25;;;;;;;5.25;1.65;;;;;;;;;;5121026;28;20090;-78
2023/09/05 11:58:51;;;;;;;4.20;1.63;;;;;;;;;;5123949;28;20516;-78
2023/09/05 12:01:29;;;;;;;4.32;1.73;;;;;;;;;;5122727;28;20134;-78
2023/09/05 12:04:06;;;;;;;3.22;1.40;;;;;;;;;;5116224;28;20055;-79
2023/09/05 12:06:35;;;;;;;3.63;1.40;;;;;;;;;;5115331;28;20104;-77
2023/09/05 12:09:02;;;;;;;5.20;1.55;;;;;;;;;;5115658;28;20528;-78
2023/09/05 12:11:28;;;;;;;3.33;1.25;;;;;;;;;;5118122;27;20043;-78
2023/09/05 12:13:57;;;;;;;3.90;1.10;;;;;;;;;;5120001;28;20058;-78
2023/09/05 12:16:24;;;;;;;3.63;1.10;;;;;;;;;;5118553;28;20063;-78
2023/09/05 12:19:02;;;;;;;4.45;1.17;;;;;;;;;;5106557;28;20374;-78
2023/09/05 12:21:41;;;;;;;5.82;1.30;;;;;;;;;;5104403;28;20055;-78
2023/09/05 12:24:20;;;;;;;4.35;1.40;;;;;;;;;;5100687;28;20036;-78
2023/09/05 12:26:47;;;;;;;2.83;1.10;;;;;;;;;;5108837;28;20190;-78
2023/09/05 12:29:15;;;;;;;3.47;1.30;;;;;;;;;;5106163;28;20489;-78
2023/09/05 12:31:43;;;;;;;3.97;1.50;;;;;;;;;;5114993;28;20044;-78
2023/09/05 12:34:09;;;;;;;3.25;1.30;;;;;;;;;;5112070;28;20051;-77
2023/09/05 12:36:35;;;;;;;3.83;1.33;;;;;;;;;;5086869;28;20210;-77
2023/09/05 12:39:02;;;;;;;3.72;1.30;;;;;;;;;;5116528;28;20489;-78
2023/09/05 12:41:28;;;;;;;3.58;1.00;;;;;;;;;;5117117;28;20146;-78
2023/09/05 12:43:55;;;;;;;3.85;1.30;;;;;;;;;;5117855;28;20043;-78
2023/09/05 12:46:21;;;;;;;4.82;1.30;;;;;;;;;;5114287;28;20470;-78
2023/09/05 12:48:53;;;;;;;6.70;1.20;;;;;;;;;;5120619;28;20050;-78
2023/09/05 12:51:19;;;;;;;2.45;1.02;;;;;;;;;;5112774;28;20074;-76
2023/09/05 12:53:48;;;;;;;3.85;1.10;;;;;;;;;;5112259;28;20039;-78
2023/09/05 12:56:14;;;;;;;4.38;1.10;;;;;;;;;;5115703;28;20107;-78
2023/09/05 12:58:40;;;;;;;8.23;1.40;;;;;;;;;;5097594;28;20093;-77
2023/09/05 13:01:06;;;;;;;3.58;1.00;;;;;;;;;;5121093;28;20058;-78
2023/09/05 13:03:34;;;;;;;5.07;1.10;;;;;;;;;;5069458;28;20044;-78
2023/09/05 13:06:00;;;;;;;3.97;1.23;;;;;;;;;;5091619;28;20401;-77
2023/09/05 13:08:27;;;;;;;2.80;1.05;;;;;;;;;;5120174;28;20131;-77
2023/09/05 13:10:53;;;;;;;5.43;1.33;;;;;;;;;;5116429;28;20055;-78
2023/09/05 13:13:19;;;;;;;5.03;1.30;;;;;;;;;;5114480;28;20048;-78
2023/09/05 13:15:45;;;;;;;3.15;1.05;;;;;;;;;;5111819;28;20458;-77
2023/09/05 13:18:12;;;;;;;3.60;1.30;;;;;;;;;;5116772;27;20447;-78
2023/09/05 13:20:38;;;;;;;3.40;1.17;;;;;;;;;;5116057;28;20046;-78
2023/09/05 13:23:04;;;;;;;3.30;1.20;;;;;;;;;;5103355;28;20122;-78
2023/09/05 13:25:32;;;;;;;3.35;1.10;;;;;;;;;;5118779;28;20044;-81
2023/09/05 13:27:59;;;;;;;4.90;1.30;;;;;;;;;;5120799;28;20044;-78
2023/09/05 13:30:25;;;;;;;4.00;1.30;;;;;;;;;;5099810;28;20047;-78
2023/09/05 13:32:52;;;;;;;3.17;1.02;;;;;;;;;;5107901;28;20098;-79
2023/09/05 13:35:18;;;;;;;6.47;1.40;;;;;;;;;;5102295;28;20059;-78
2023/09/05 13:37:44;;;;;;;3.40;1.30;;;;;;;;;;5103851;28;20137;-78
2023/09/05 13:40:10;;;;;;;5.25;1.40;;;;;;;;;;5090976;28;20043;-78
2023/09/05 13:42:36;;;;;;;8.38;1.40;;;;;;;;;;5105501;28;20047;-77
2023/09/05 13:45:03;;;;;;;5.40;1.30;;;;;;;;;;5100562;28;20035;-78
2023/09/05 13:47:30;;;;;;;4.43;1.20;;;;;;;;;;5107580;28;20167;-78
2023/09/05 13:49:56;;;;;;;3.92;1.30;;;;;;;;;;5112964;28;20048;-78
2023/09/05 13:52:22;;;;;;;3.78;1.20;;;;;;;;;;5095378;28;20104;-78
2023/09/05 13:54:48;;;;;;;3.38;1.25;;;;;;;;;;5099499;28;20118;-77
2023/09/05 13:57:15;;;;;;;3.83;1.30;;;;;;;;;;5099133;28;20404;-77
2023/09/05 13:59:41;;;;;;;3.28;1.20;;;;;;;;;;5116502;28;20413;-77
2023/09/05 14:02:09;;;;;;;6.03;1.50;;;;;;;;;;5102303;28;20080;-78
2023/09/05 14:04:35;;;;;;;2.85;1.10;;;;;;;;;;5087387;28;20642;-77
2023/09/05 14:07:01;;;;;;;3.55;1.05;;;;;;;;;;5112266;27;20043;-78
2023/09/05 14:09:27;;;;;;;4.88;1.42;;;;;;;;;;5138186;27;20043;-78
2023/09/05 14:11:53;;;;;;;4.47;1.35;;;;;;;;;;5109441;27;20130;-78
2023/09/05 14:14:19;;;;;;;4.70;1.38;;;;;;;;;;5107039;28;20035;-78
2023/09/05 14:16:45;;;;;;;5.47;1.42;;;;;;;;;;5133052;27;20045;-77
2023/09/05 14:19:11;;;;;;;5.82;1.40;;;;;;;;;;5096059;28;20116;-77
2023/09/05 14:21:37;;;;;;;3.83;1.13;;;;;;;;;;5099078;28;20048;-77
2023/09/05 14:24:03;;;;;;;5.10;1.52;;;;;;;;;;5098716;28;20065;-78
2023/09/05 14:26:30;;;;;;;2.50;1.00;;;;;;;;;;5097759;28;20047;-80
2023/09/05 14:28:59;;;;;;;5.30;1.30;;;;;;;;;;5116070;28;20476;-78
2023/09/05 14:31:25;;;;;;;3.42;1.35;;;;;;;;;;5085690;28;20044;-78
2023/09/05 14:33:51;;;;;;;3.58;1.10;;;;;;;;;;5110306;28;20044;-78
2023/09/05 14:36:17;;;;;;;4.40;1.20;;;;;;;;;;5116501;28;20805;-79